Time;durP1;ratioP1;P1;durP2;ratioP2;P2;SDS_P1;SDS_P2;PMS_P1;PMS_P2;Temp;Humidity;BMP_temperature;BMP_pressure;BME280_temperature;BME280_humidity;BME280_pressure;Samples;Min_cycle;Max_cycle;Signal;HPM_P1;HPM_P2
2022/10/28 00:02:04;;;;;;;7.13;4.50;;;;;;;8.83;100.00;101321.97;6328528;28;20039;-76
2022/10/28 00:05:05;;;;;;;11.38;5.32;;;;;;;8.76;100.00;101317.00;6328525;28;20070;-76
2022/10/28 00:08:06;;;;;;;9.02;5.55;;;;;;;8.74;100.00;101327.44;6346474;28;20117;-76
2022/10/28 00:11:16;;;;;;;11.15;5.95;;;;;;;8.73;100.00;101327.50;6346564;28;20045;-76
2022/10/28 00:14:17;;;;;;;9.80;4.88;;;;;;;8.61;100.00;101323.56;6328435;28;20550;-76
2022/10/28 00:17:17;;;;;;;16.33;5.00;;;;;;;8.60;100.00;101320.09;6328350;28;20050;-76
2022/10/28 00:20:20;;;;;;;7.47;4.43;;;;;;;8.64;100.00;101324.28;6328278;28;20126;-76
2022/10/28 00:23:23;;;;;;;10.23;5.47;;;;;;;8.62;100.00;101312.25;6346352;28;20077;-75
2022/10/28 00:26:26;;;;;;;7.25;4.78;;;;;;;8.64;100.00;101321.69;6311113;28;20047;-75
2022/10/28 00:29:27;;;;;;;7.40;4.35;;;;;;;8.63;100.00;101325.22;6327819;28;20495;-75
2022/10/28 00:32:35;;;;;;;10.52;5.10;;;;;;;8.57;100.00;101322.81;6346150;28;20604;-76
2022/10/28 00:35:36;;;;;;;8.20;5.22;;;;;;;8.54;100.00;101324.66;6327937;28;20040;-76
2022/10/28 00:38:37;;;;;;;7.05;4.80;;;;;;;8.55;100.00;101324.59;6327956;28;20043;-76
2022/10/28 00:41:41;;;;;;;7.60;4.70;;;;;;;8.54;100.00;101317.69;6327885;28;20052;-75
2022/10/28 00:44:54;;;;;;;5.45;3.90;;;;;;;8.47;100.00;101321.41;6346269;28;20071;-76
2022/10/28 00:48:02;;;;;;;7.93;4.03;;;;;;;8.43;100.00;101319.81;6345798;28;20065;-75
2022/10/28 00:51:04;;;;;;;8.30;4.22;;;;;;;8.39;100.00;101315.56;6327726;28;20059;-75
2022/10/28 00:54:05;;;;;;;8.52;4.22;;;;;;;8.36;100.00;101318.25;6327755;28;20035;-76
2022/10/28 00:57:11;;;;;;;6.13;3.45;;;;;;;8.40;100.00;101312.03;6327782;28;20048;-76
2022/10/28 01:00:13;;;;;;;5.85;3.42;;;;;;;8.40;100.00;101314.66;6330236;28;20036;-76
2022/10/28 01:03:14;;;;;;;7.50;3.55;;;;;;;8.43;100.00;101317.19;6351223;28;20039;-76
2022/10/28 01:06:16;;;;;;;5.45;3.88;;;;;;;8.43;100.00;101304.19;6350880;28;20513;-76
2022/10/28 01:09:18;;;;;;;5.30;3.85;;;;;;;8.52;100.00;101308.25;6332649;28;20046;-76
2022/10/28 01:12:40;;;;;;;4.85;3.38;;;;;;;8.52;100.00;101311.69;6350935;28;20042;-76
2022/10/28 01:15:54;;;;;;;3.95;2.70;;;;;;;8.45;100.00;101295.44;6350753;28;20039;-76
2022/10/28 01:19:22;;;;;;;6.75;3.20;;;;;;;8.58;100.00;101305.44;6332484;28;20194;-76
2022/10/28 01:22:32;;;;;;;4.45;3.17;;;;;;;8.58;100.00;101300.25;6350674;28;20035;-76
2022/10/28 01:26:18;;;;;;;4.25;3.03;;;;;;;8.58;100.00;101300.25;6350560;28;20043;-76
2022/10/28 01:29:54;;;;;;;6.13;3.97;;;;;;;8.54;100.00;101315.09;6298910;28;20059;-76
2022/10/28 01:33:17;;;;;;;12.60;4.22;;;;;;;8.50;100.00;101297.88;6279300;28;20579;-75
2022/10/28 01:36:38;;;;;;;11.30;4.72;;;;;;;8.55;100.00;101301.19;6350260;28;20040;-76
2022/10/28 01:39:48;;;;;;;4.97;3.30;;;;;;;8.58;100.00;101306.28;6314944;28;20055;-76
2022/10/28 01:43:01;;;;;;;7.28;3.58;;;;;;;8.56;100.00;101307.25;6332069;28;20039;-76
2022/10/28 01:46:28;;;;;;;5.15;3.80;;;;;;;8.37;100.00;101299.16;6331521;28;20067;-76
2022/10/28 01:50:06;;;;;;;13.32;2.97;;;;;;;8.48;100.00;101304.88;6335678;28;20051;-76
2022/10/28 01:53:12;;;;;;;2.50;2.30;;;;;;;8.34;100.00;101300.13;6280306;28;20065;-75
2022/10/28 01:56:16;;;;;;;2.72;2.30;;;;;;;8.35;100.00;101295.75;6331480;28;20047;-76
2022/10/28 01:59:22;;;;;;;3.50;2.45;;;;;;;8.37;100.00;101296.56;6331726;28;20040;-76
2022/10/28 02:02:23;;;;;;;2.90;2.42;;;;;;;8.32;100.00;101301.91;6349667;28;20081;-76
2022/10/28 02:05:44;;;;;;;2.55;2.22;;;;;;;8.33;100.00;101301.00;6349691;28;20449;-76
2022/10/28 02:09:19;;;;;;;2.97;2.15;;;;;;;8.28;100.00;101310.72;6331079;28;20399;-76
2022/10/28 02:12:35;;;;;;;2.22;2.03;;;;;;;8.22;100.00;101303.94;6330560;28;20101;-76
2022/10/28 02:15:49;;;;;;;3.65;2.95;;;;;;;8.25;100.00;101295.19;6349365;28;20127;-76
2022/10/28 02:19:24;;;;;;;4.88;2.45;;;;;;;8.18;100.00;101304.94;6349138;28;20411;-76
2022/10/28 02:22:48;;;;;;;2.45;2.25;;;;;;;8.08;100.00;101296.56;6330978;28;20082;-76
2022/10/28 02:26:08;;;;;;;3.00;2.60;;;;;;;8.16;100.00;101298.94;6330984;28;20040;-76
2022/10/28 02:29:48;;;;;;;3.75;2.88;;;;;;;8.12;100.00;101294.72;6348954;28;20089;-76
2022/10/28 02:32:57;;;;;;;3.70;2.58;;;;;;;8.05;100.00;101293.19;6280651;28;20047;-76
2022/10/28 02:36:02;;;;;;;4.00;2.75;;;;;;;8.00;100.00;101297.69;6330673;28;20044;-76
2022/10/28 02:39:05;;;;;;;8.77;3.05;;;;;;;8.02;100.00;101296.75;6330486;28;20032;-76
2022/10/28 02:42:08;;;;;;;3.72;2.92;;;;;;;7.97;100.00;101296.06;6348572;28;20039;-76
2022/10/28 02:45:15;;;;;;;3.20;2.40;;;;;;;7.87;100.00;101305.03;6330149;28;20085;-76
2022/10/28 02:48:24;;;;;;;7.70;3.13;;;;;;;7.86;100.00;101295.50;6348410;28;20468;-76
2022/10/28 02:51:39;;;;;;;3.25;2.47;;;;;;;7.92;100.00;101287.53;6330485;28;20108;-76
2022/10/28 02:54:51;;;;;;;4.22;3.05;;;;;;;7.92;100.00;101297.91;6330265;28;20036;-76
2022/10/28 02:57:52;;;;;;;;;;;;;;;8.00;100.00;101303.75;6348702;28;20040;-76
2022/10/28 03:00:53;;;;;;;2.90;2.13;;;;;;;8.02;100.00;101306.31;6330035;28;20358;-76
2022/10/28 03:03:54;;;;;;;3.70;2.90;;;;;;;8.02;100.00;101301.09;6348759;28;20043;-76
2022/10/28 03:06:54;;;;;;;3.00;2.55;;;;;;;7.97;100.00;101298.66;6329792;28;20312;-76
2022/10/28 03:09:58;;;;;;;3.35;2.60;;;;;;;7.95;100.00;101300.44;6312778;28;20113;-76
2022/10/28 03:12:58;;;;;;;11.55;2.63;;;;;;;7.96;100.00;101304.72;6329776;28;20408;-75
2022/10/28 03:15:59;;;;;;;4.45;3.20;;;;;;;7.98;100.00;101305.53;6347871;28;20110;-76
2022/10/28 03:19:00;;;;;;;4.82;2.95;;;;;;;7.91;100.00;101309.22;6347670;28;20043;-76
2022/10/28 03:22:01;;;;;;;4.15;3.35;;;;;;;7.88;100.00;101306.72;6329165;28;20055;-76
2022/10/28 03:25:01;;;;;;;17.38;9.27;;;;;;;7.87;100.00;101305.03;6311778;28;20130;-76
2022/10/28 03:28:05;;;;;;;14.40;8.00;;;;;;;7.82;100.00;101306.88;6329459;28;20415;-76
2022/10/28 03:31:05;;;;;;;6.47;4.80;;;;;;;7.88;100.00;101309.31;6329359;28;20457;-76
2022/10/28 03:34:08;;;;;;;6.82;4.18;;;;;;;7.78;100.00;101320.88;6329187;28;20077;-76
2022/10/28 03:37:09;;;;;;;4.85;3.58;;;;;;;7.91;100.00;101317.03;6329223;28;20039;-76
2022/10/28 03:40:11;;;;;;;4.85;3.53;;;;;;;7.82;100.00;101323.34;6329065;28;20036;-76
2022/10/28 03:43:11;;;;;;;6.45;3.35;;;;;;;7.76;100.00;101322.66;6347122;28;20376;-78
2022/10/28 03:46:12;;;;;;;3.80;3.03;;;;;;;7.70;100.00;101317.63;6346778;28;20083;-76
2022/10/28 03:49:12;;;;;;;3.30;3.00;;;;;;;7.76;100.00;101323.53;6311859;28;20138;-76
2022/10/28 03:52:13;;;;;;;4.82;3.53;;;;;;;7.77;100.00;101319.19;6346956;28;20071;-76
2022/10/28 03:55:14;;;;;;;4.22;3.22;;;;;;;7.77;100.00;101314.81;6328702;28;20063;-76
2022/10/28 03:58:14;;;;;;;3.10;2.80;;;;;;;7.82;100.00;101319.88;6328772;28;20043;-76
2022/10/28 04:01:15;;;;;;;4.47;3.05;;;;;;;7.85;100.00;101319.81;6346668;28;20525;-76
2022/10/28 04:04:16;;;;;;;3.33;2.70;;;;;;;7.82;100.00;101315.56;6346853;28;20134;-76
2022/10/28 04:07:17;;;;;;;2.65;2.45;;;;;;;7.76;100.00;101310.53;6346580;28;20062;-76
2022/10/28 04:10:17;;;;;;;2.80;2.45;;;;;;;7.81;100.00;101318.19;6346460;28;20040;-77
2022/10/28 04:13:18;;;;;;;3.05;2.20;;;;;;;7.86;100.00;101314.56;6346560;28;20467;-76
2022/10/28 04:16:19;;;;;;;2.85;2.40;;;;;;;7.89;100.00;101311.03;6346483;28;20039;-77
2022/10/28 04:19:21;;;;;;;3.05;2.70;;;;;;;7.85;100.00;101307.66;6311484;28;20070;-76
2022/10/28 04:22:24;;;;;;;2.50;2.30;;;;;;;7.85;100.00;101307.66;6311246;28;20414;-76
2022/10/28 04:25:26;;;;;;;4.05;2.72;;;;;;;7.99;100.00;101321.97;6328331;28;20043;-77
2022/10/28 04:28:27;;;;;;;3.97;2.45;;;;;;;7.97;100.00;101309.06;6327932;28;20097;-76
2022/10/28 04:31:27;;;;;;;3.97;2.67;;;;;;;8.01;100.00;101312.38;6328202;28;20040;-77
2022/10/28 04:34:30;;;;;;;3.45;2.38;;;;;;;8.07;100.00;101313.06;6327693;28;20043;-76
2022/10/28 04:37:33;;;;;;;3.90;3.10;;;;;;;8.13;100.00;101309.41;6311235;28;20491;-77
2022/10/28 04:40:34;;;;;;;6.07;3.83;;;;;;;8.25;100.00;101318.59;6327603;28;20411;-77
2022/10/28 04:43:35;;;;;;;7.10;4.97;;;;;;;8.30;100.00;101319.31;6327824;28;20040;-76
2022/10/28 04:46:36;;;;;;;6.35;4.72;;;;;;;8.33;100.00;101308.78;6346226;28;20055;-77
2022/10/28 04:49:36;;;;;;;5.97;4.22;;;;;;;8.33;100.00;101311.41;6356298;28;20123;-76
2022/10/28 04:52:37;;;;;;;7.80;5.63;;;;;;;8.35;100.00;101314.81;6334734;28;20055;-77
2022/10/28 04:55:38;;;;;;;7.25;5.18;;;;;;;8.41;100.00;101321.59;6354440;28;20118;-77
2022/10/28 04:58:39;;;;;;;4.93;3.33;;;;;;;8.45;100.00;101325.81;6372220;28;20411;-77
2022/10/28 05:01:39;;;;;;;5.38;3.42;;;;;;;8.47;100.00;101324.84;6353646;28;20040;-77
2022/10/28 05:04:40;;;;;;;3.60;2.78;;;;;;;8.57;100.00;101329.78;6352988;28;20039;-77
2022/10/28 05:07:41;;;;;;;3.53;2.50;;;;;;;8.61;100.00;101324.41;6371121;28;20550;-76
2022/10/28 05:10:41;;;;;;;5.63;2.90;;;;;;;8.62;100.00;101320.06;6370954;28;20035;-76
2022/10/28 05:13:42;;;;;;;3.05;2.60;;;;;;;8.70;100.00;101325.00;6352880;28;20035;-77
2022/10/28 05:16:43;;;;;;;3.67;3.03;;;;;;;8.68;100.00;101317.25;6352813;28;20039;-77
2022/10/28 05:19:44;;;;;;;4.50;3.42;;;;;;;8.70;100.00;101322.41;6371073;28;20505;-77
2022/10/28 05:22:51;;;;;;;5.38;3.28;;;;;;;8.67;100.00;101324.22;6352599;28;20035;-77
2022/10/28 05:25:52;;;;;;;5.70;3.95;;;;;;;8.61;100.00;101307.97;6352694;28;20039;-77
2022/10/28 05:28:52;;;;;;;4.90;3.35;;;;;;;8.71;100.00;101314.56;6370687;28;20398;-77
2022/10/28 05:31:53;;;;;;;4.63;3.15;;;;;;;8.73;100.00;101315.34;6335448;28;20057;-77
2022/10/28 05:34:54;;;;;;;6.72;4.13;;;;;;;8.79;100.00;101314.28;6352581;28;20046;-77
2022/10/28 05:37:55;;;;;;;14.52;8.20;;;;;;;8.84;100.00;101320.19;6335521;28;20070;-77
2022/10/28 05:40:56;;;;;;;12.68;5.55;;;;;;;8.93;100.00;101311.22;6352272;28;20092;-77
2022/10/28 05:43:56;;;;;;;7.78;5.25;;;;;;;8.99;100.00;101319.66;6352525;28;20063;-77
2022/10/28 05:46:57;;;;;;;8.02;5.07;;;;;;;9.04;100.00;101317.78;6368560;27;20450;-77
2022/10/28 05:49:58;;;;;;;8.38;4.90;;;;;;;9.07;100.00;101325.47;6360492;27;20039;-77
2022/10/28 05:52:58;;;;;;;8.88;6.00;;;;;;;9.12;100.00;101322.72;6355942;27;20104;-76
2022/10/28 05:55:59;;;;;;;8.60;5.55;;;;;;;9.20;100.00;101318.06;6349764;28;20044;-77
2022/10/28 05:59:00;;;;;;;7.78;4.85;;;;;;;9.25;100.00;101323.97;6338613;27;20395;-77
2022/10/28 06:02:01;;;;;;;4.25;3.10;;;;;;;9.24;100.00;101324.03;6331489;28;20522;-77
2022/10/28 06:05:03;;;;;;;4.32;3.13;;;;;;;9.30;100.00;101328.19;6331441;28;20047;-77
2022/10/28 06:08:04;;;;;;;7.82;3.63;;;;;;;9.29;100.00;101316.91;6346758;27;20118;-77
2022/10/28 06:11:05;;;;;;;7.80;3.85;;;;;;;9.24;100.00;101318.81;6374886;27;20617;-77
2022/10/28 06:14:06;;;;;;;11.50;3.85;;;;;;;9.19;100.00;101329.41;6374842;27;20054;-77
2022/10/28 06:17:06;;;;;;;5.18;3.83;;;;;;;9.17;100.00;101328.59;6339350;27;20078;-77
2022/10/28 06:20:08;;;;;;;5.70;3.80;;;;;;;9.08;100.00;101327.19;6374731;27;20042;-77
2022/10/28 06:23:08;;;;;;;5.97;3.67;;;;;;;9.18;100.00;101332.94;6350597;27;20046;-77
2022/10/28 06:26:09;;;;;;;15.15;4.28;;;;;;;8.92;100.00;101333.81;6330731;28;20055;-77
2022/10/28 06:29:10;;;;;;;6.25;4.13;;;;;;;9.01;100.00;101335.25;6313799;28;20044;-77
2022/10/28 06:32:11;;;;;;;12.10;3.92;;;;;;;8.99;100.00;101329.22;6330639;28;20040;-77
2022/10/28 06:35:12;;;;;;;5.95;3.45;;;;;;;9.03;100.00;101334.28;6325644;27;20488;-77
2022/10/28 06:38:15;;;;;;;5.43;3.90;;;;;;;8.94;100.00;101337.22;6324161;27;20078;-77
2022/10/28 06:41:15;;;;;;;13.38;4.72;;;;;;;9.15;100.00;101335.63;6345667;27;20502;-77
2022/10/28 06:44:16;;;;;;;6.97;4.50;;;;;;;9.18;100.00;101334.66;6346471;27;20080;-77
2022/10/28 06:47:19;;;;;;;7.93;4.68;;;;;;;9.26;100.00;101338.69;6327558;27;20137;-77
2022/10/28 06:50:20;;;;;;;5.85;4.13;;;;;;;9.28;100.00;101339.47;6355652;27;20043;-77
2022/10/28 06:53:21;;;;;;;6.38;4.43;;;;;;;9.26;100.00;101330.03;6355626;27;20046;-77
2022/10/28 06:56:22;;;;;;;9.38;3.75;;;;;;;9.29;100.00;101332.53;6355725;27;20039;-78
2022/10/28 06:59:23;;;;;;;7.40;4.22;;;;;;;9.34;100.00;101335.81;6355213;27;20126;-77
2022/10/28 07:02:23;;;;;;;12.75;4.57;;;;;;;9.53;100.00;101346.44;6373658;27;20050;-77
2022/10/28 07:05:26;;;;;;;5.15;3.45;;;;;;;9.64;100.00;101344.28;6355156;27;20050;-77
2022/10/28 07:08:27;;;;;;;13.98;4.57;;;;;;;9.74;100.00;101346.56;6355426;27;20067;-78
2022/10/28 07:11:28;;;;;;;8.02;4.75;;;;;;;9.73;100.00;101345.72;6338700;27;20482;-77
2022/10/28 07:14:29;;;;;;;5.65;4.00;;;;;;;9.84;100.00;101353.13;6342046;27;20054;-77
2022/10/28 07:17:29;;;;;;;11.95;4.47;;;;;;;9.96;100.00;101347.44;6344031;27;20089;-78
2022/10/28 07:20:31;;;;;;;25.08;4.35;;;;;;;10.02;100.00;101357.66;6315904;27;20050;-78
2022/10/28 07:23:34;;;;;;;7.95;4.53;;;;;;;10.15;100.00;101352.84;6338243;28;20399;-78
2022/10/28 07:26:35;;;;;;;8.68;4.45;;;;;;;10.20;100.00;101350.03;6324561;27;20054;-77
2022/10/28 07:29:36;;;;;;;6.18;4.25;;;;;;;10.14;100.00;101358.09;6331024;28;20430;-78
2022/10/28 07:32:36;;;;;;;10.05;4.45;;;;;;;10.15;100.00;101363.28;6347191;28;20043;-77
2022/10/28 07:35:37;;;;;;;7.40;4.38;;;;;;;10.20;100.00;101352.66;6347822;28;20494;-77
2022/10/28 07:38:39;;;;;;;8.77;4.80;;;;;;;10.35;100.00;101346.00;6367602;27;20047;-77
2022/10/28 07:41:40;;;;;;;7.55;5.05;;;;;;;10.56;100.00;101357.34;6346611;27;20032;-77
2022/10/28 07:44:40;;;;;;;7.13;4.38;;;;;;;10.77;100.00;101355.63;6346954;28;20134;-78
2022/10/28 07:47:41;;;;;;;8.82;4.20;;;;;;;10.73;100.00;101362.75;6331846;27;20054;-78
2022/10/28 07:50:42;;;;;;;10.57;5.78;;;;;;;10.87;100.00;101362.16;6338606;28;20087;-78
2022/10/28 07:53:43;;;;;;;12.65;5.70;;;;;;;11.13;100.00;101362.84;6333157;27;20453;-78
2022/10/28 07:56:44;;;;;;;9.15;4.97;;;;;;;11.25;100.00;101359.72;6345081;27;20047;-77
2022/10/28 07:59:44;;;;;;;8.27;4.70;;;;;;;11.16;100.00;101360.09;6337155;27;20479;-78
2022/10/28 08:02:45;;;;;;;6.68;4.32;;;;;;;11.24;100.00;101361.50;6327392;27;20130;-78
2022/10/28 08:05:48;;;;;;;9.45;5.28;;;;;;;11.28;100.00;101362.19;6336146;27;20525;-78
2022/10/28 08:08:53;;;;;;;11.63;5.75;;;;;;;11.48;100.00;101385.69;6328112;28;20502;-78
2022/10/28 08:11:55;;;;;;;7.68;4.93;;;;;;;11.58;100.00;101383.53;6346506;28;20050;-78
2022/10/28 08:14:56;;;;;;;9.63;5.75;;;;;;;11.68;100.00;101382.19;6328504;28;20142;-78
2022/10/28 08:17:59;;;;;;;10.43;4.95;;;;;;;11.81;100.00;101371.19;6328288;28;20046;-78
2022/10/28 08:21:01;;;;;;;10.27;6.32;;;;;;;11.89;100.00;101364.72;6328124;28;20407;-78
2022/10/28 08:24:02;;;;;;;10.52;6.38;;;;;;;12.01;100.00;101363.31;6328019;28;20078;-77
2022/10/28 08:27:03;;;;;;;9.68;6.40;;;;;;;12.13;100.00;101371.50;6311211;28;20048;-78
2022/10/28 08:30:05;;;;;;;11.32;5.90;;;;;;;12.09;100.00;101362.97;6328492;28;20063;-78
2022/10/28 08:33:05;;;;;;;9.32;5.65;;;;;;;12.19;100.00;101359.00;6346257;28;20511;-78
2022/10/28 08:36:08;;;;;;;7.68;4.80;;;;;;;12.35;100.00;101363.50;6337952;27;20113;-78
2022/10/28 08:39:08;;;;;;;9.38;5.85;;;;;;;12.48;100.00;101370.69;6331113;28;20096;-78
2022/10/28 08:42:33;;;;;;;7.70;5.30;;;;;;;12.57;100.00;101365.94;6339247;28;20035;-78
2022/10/28 08:45:50;;;;;;;13.48;5.75;;;;;;;12.60;100.00;101373.63;6341035;28;20059;-78
2022/10/28 08:48:51;;;;;;;9.98;5.88;;;;;;;12.70;100.00;101367.03;6332550;28;20115;-78
2022/10/28 08:52:16;;;;;;;9.57;5.40;;;;;;;12.84;100.00;101376.84;6371246;28;20399;-78
2022/10/28 08:55:28;;;;;;;14.88;6.65;;;;;;;12.85;100.00;101373.31;6358014;28;20043;-77
2022/10/28 08:58:33;;;;;;;15.75;6.38;;;;;;;12.97;100.00;101364.84;6350635;28;20071;-77
2022/10/28 09:01:46;;;;;;;11.93;7.30;;;;;;;13.04;100.00;101374.06;6353111;28;20055;-78
2022/10/28 09:04:59;;;;;;;10.75;6.25;;;;;;;13.28;100.00;101384.22;6348476;28;20039;-77
2022/10/28 09:08:03;;;;;;;14.48;6.80;;;;;;;13.29;100.00;101383.34;6345840;28;20075;-78
2022/10/28 09:11:29;;;;;;;10.93;6.03;;;;;;;13.53;100.00;101380.38;6345787;28;20044;-77
2022/10/28 09:15:07;;;;;;;11.32;6.18;;;;;;;13.51;100.00;101383.09;6335279;28;20045;-77
2022/10/28 09:18:16;;;;;;;11.38;6.68;;;;;;;13.59;100.00;101377.41;6366458;28;20047;-77
2022/10/28 09:21:19;;;;;;;14.27;7.63;;;;;;;13.79;100.00;101371.97;6352198;27;20085;-77
2022/10/28 09:24:28;;;;;;;11.98;7.13;;;;;;;13.87;100.00;101367.16;6320221;27;20754;-77
2022/10/28 09:27:55;;;;;;;11.90;6.95;;;;;;;13.88;100.00;101371.50;6342646;27;20043;-77
2022/10/28 09:31:22;;;;;;;10.63;7.13;;;;;;;14.12;100.00;101381.56;6345433;27;20035;-77
2022/10/28 09:34:25;;;;;;;11.85;6.03;;;;;;;14.11;100.00;101377.25;6298171;27;20517;-77
2022/10/28 09:37:31;;;;;;;12.15;6.80;;;;;;;14.14;100.00;101373.63;6340497;28;20092;-77
2022/10/28 09:40:37;;;;;;;9.77;6.35;;;;;;;14.17;100.00;101376.09;6331868;28;20414;-77
2022/10/28 09:43:52;;;;;;;10.27;6.60;;;;;;;14.12;100.00;101376.31;6331254;28;20046;-77
2022/10/28 09:46:57;;;;;;;10.10;6.50;;;;;;;14.30;100.00;101370.06;6314464;28;20052;-77
2022/10/28 09:50:00;;;;;;;14.48;7.18;;;;;;;14.52;100.00;101374.97;6331605;28;20044;-77
2022/10/28 09:53:06;;;;;;;15.27;7.72;;;;;;;14.71;100.00;101369.53;6349734;28;20048;-78
2022/10/28 09:56:08;;;;;;;11.57;6.95;;;;;;;14.62;100.00;101364.81;6346341;27;20487;-77
2022/10/28 09:59:14;;;;;;;14.32;7.45;;;;;;;14.79;100.00;101369.09;6339665;27;20043;-78
2022/10/28 10:02:25;;;;;;;14.25;8.10;;;;;;;15.08;100.00;101359.50;6339584;27;20051;-78
2022/10/28 10:05:32;;;;;;;13.68;7.45;;;;;;;15.13;100.00;101361.00;6356652;27;20039;-78
2022/10/28 10:08:35;;;;;;;10.73;7.28;;;;;;;15.10;100.00;101352.38;6356405;27;20058;-78
2022/10/28 10:11:42;;;;;;;17.85;9.82;;;;;;;15.27;100.00;101355.78;6335396;27;20522;-78
2022/10/28 10:14:55;;;;;;;13.25;8.05;;;;;;;15.31;100.00;101355.50;6330743;28;20048;-78
2022/10/28 10:17:59;;;;;;;12.23;7.28;;;;;;;15.36;100.00;101362.25;6330834;28;20051;-78
2022/10/28 10:21:00;;;;;;;18.27;10.45;;;;;;;15.51;100.00;101363.97;6330906;28;20396;-77
2022/10/28 10:24:03;;;;;;;14.80;8.48;;;;;;;15.80;100.00;101354.31;6330614;28;20051;-77
2022/10/28 10:27:10;;;;;;;20.48;10.95;;;;;;;15.96;100.00;101358.59;6330627;28;20035;-77
2022/10/28 10:30:20;;;;;;;17.45;10.05;;;;;;;16.18;100.00;101343.13;6313756;28;20064;-78
2022/10/28 10:33:39;;;;;;;14.48;8.05;;;;;;;16.23;100.00;101353.41;6330041;28;20089;-78
2022/10/28 10:36:49;;;;;;;11.00;7.25;;;;;;;16.27;100.00;101354.88;6336548;27;20039;-78
2022/10/28 10:40:00;;;;;;;15.55;7.78;;;;;;;16.29;100.00;101343.31;6355678;27;20460;-77
2022/10/28 10:43:34;;;;;;;16.95;8.13;;;;;;;16.60;100.00;101340.47;6347868;27;20064;-78
2022/10/28 10:46:35;;;;;;;12.60;7.75;;;;;;;16.41;100.00;101343.44;6301747;28;20523;-78
2022/10/28 10:49:36;;;;;;;13.70;8.30;;;;;;;16.23;100.00;101333.16;6323161;28;20040;-78
2022/10/28 10:52:46;;;;;;;13.50;7.38;;;;;;;16.35;100.00;101341.19;6321798;28;20040;-78
2022/10/28 10:55:57;;;;;;;15.82;8.10;;;;;;;16.43;100.00;101331.00;6322974;28;20534;-78
2022/10/28 10:59:01;;;;;;;15.30;8.02;;;;;;;16.28;100.00;101330.22;6321646;28;20071;-77
2022/10/28 11:02:19;;;;;;;16.50;8.35;;;;;;;16.51;100.00;101334.84;6321498;28;20070;-78
2022/10/28 11:05:22;;;;;;;15.13;8.43;;;;;;;16.75;100.00;101336.81;6304822;28;20052;-78
2022/10/28 11:08:33;;;;;;;11.90;8.25;;;;;;;17.06;100.00;101340.88;6321433;28;20036;-78
2022/10/28 11:11:38;;;;;;;15.07;8.63;;;;;;;16.52;100.00;101343.59;6304486;28;20052;-78
2022/10/28 11:14:53;;;;;;;13.75;8.38;;;;;;;16.58;100.00;101331.81;6322669;28;20032;-77
2022/10/28 11:18:19;;;;;;;16.90;8.23;;;;;;;16.09;100.00;101326.13;6321338;28;20048;-77
2022/10/28 11:21:20;;;;;;;12.15;7.65;;;;;;;16.34;100.00;101329.00;6321176;28;20075;-77
2022/10/28 11:25:07;;;;;;;12.52;7.72;;;;;;;16.29;100.00;101329.28;6321041;28;20044;-78
2022/10/28 11:28:39;;;;;;;11.55;8.02;;;;;;;16.15;100.00;101330.19;6270292;28;20045;-77
2022/10/28 11:31:55;;;;;;;13.30;7.97;;;;;;;16.31;100.00;101325.63;6318975;28;20090;-77
2022/10/28 11:35:05;;;;;;;12.05;7.88;;;;;;;16.23;100.00;101329.69;6303794;28;20051;-78
2022/10/28 11:38:33;;;;;;;14.07;8.23;;;;;;;16.00;100.00;101329.38;6320644;28;20054;-78
2022/10/28 11:41:53;;;;;;;11.63;7.60;;;;;;;15.88;100.00;101327.53;6320505;28;20083;-78
2022/10/28 11:45:04;;;;;;;15.15;8.45;;;;;;;16.08;100.00;101321.84;6324635;27;20114;-77
2022/10/28 11:48:55;;;;;;;15.02;7.90;;;;;;;16.21;100.00;101319.25;6372192;27;20085;-77
2022/10/28 11:52:02;;;;;;;12.85;7.55;;;;;;;16.19;100.00;101320.31;6372394;27;20084;-77
2022/10/28 11:55:27;;;;;;;18.15;8.25;;;;;;;16.31;100.00;101315.06;6372117;27;20070;-78
2022/10/28 11:58:49;;;;;;;12.93;7.70;;;;;;;16.28;100.00;101311.78;6354025;27;20069;-78
2022/10/28 12:02:21;;;;;;;13.40;8.25;;;;;;;16.15;100.00;101308.28;6372408;27;20536;-77
2022/10/28 12:05:42;;;;;;;16.20;8.60;;;;;;;16.21;100.00;101313.97;6336671;27;20063;-77
2022/10/28 12:09:12;;;;;;;14.05;8.18;;;;;;;16.08;100.00;101311.31;6353785;27;20135;-77
2022/10/28 12:12:15;;;;;;;14.75;8.45;;;;;;;15.84;100.00;101303.19;6350235;27;20059;-78
2022/10/28 12:15:25;;;;;;;13.00;7.95;;;;;;;15.97;100.00;101295.34;6353521;27;20062;-78
2022/10/28 12:18:40;;;;;;;16.65;8.23;;;;;;;16.05;100.00;101300.94;6353419;27;20138;-78
2022/10/28 12:21:46;;;;;;;13.80;8.25;;;;;;;16.05;100.00;101310.66;6336498;27;20138;-77
2022/10/28 12:24:49;;;;;;;13.40;8.27;;;;;;;16.08;100.00;101308.66;6371801;27;20043;-78
2022/10/28 12:27:54;;;;;;;15.52;8.55;;;;;;;15.97;100.00;101313.75;6371526;27;20031;-77
2022/10/28 12:30:58;;;;;;;12.75;7.82;;;;;;;15.93;100.00;101309.63;6353389;27;20122;-77
2022/10/28 12:34:03;;;;;;;12.43;8.05;;;;;;;15.74;100.00;101304.69;6353237;28;20039;-78
2022/10/28 12:37:18;;;;;;;15.45;8.75;;;;;;;15.69;100.00;101304.97;6353353;28;20046;-78
2022/10/28 12:40:23;;;;;;;17.35;9.13;;;;;;;15.64;100.00;101299.13;6364201;27;20031;-78
2022/10/28 12:43:32;;;;;;;16.67;9.82;;;;;;;15.48;100.00;101301.00;6397456;27;20418;-78
2022/10/28 12:46:51;;;;;;;15.23;8.82;;;;;;;15.41;100.00;101303.19;6396745;27;20155;-77
2022/10/28 12:50:07;;;;;;;16.90;9.23;;;;;;;15.41;100.00;101294.47;6378757;27;20475;-77
2022/10/28 12:53:26;;;;;;;14.52;9.27;;;;;;;15.67;100.00;101284.97;6334997;28;20042;-78
2022/10/28 12:56:35;;;;;;;18.95;9.57;;;;;;;15.77;100.00;101275.53;6340393;28;20052;-78
2022/10/28 13:00:00;;;;;;;16.60;9.95;;;;;;;15.90;100.00;101270.38;6343563;27;20092;-78
2022/10/28 13:03:04;;;;;;;16.73;9.27;;;;;;;15.52;100.00;101265.69;6336778;28;20044;-78
2022/10/28 13:06:19;;;;;;;17.30;9.05;;;;;;;15.73;100.00;101263.56;6315709;28;20537;-78
2022/10/28 13:09:51;;;;;;;18.80;9.80;;;;;;;15.75;100.00;101259.03;6332666;28;20039;-78
2022/10/28 13:13:12;;;;;;;15.00;9.00;;;;;;;15.82;100.00;101260.31;6350769;28;20536;-78
2022/10/28 13:16:38;;;;;;;18.97;10.97;;;;;;;15.87;100.00;101255.59;6332688;28;20117;-78
2022/10/28 13:20:10;;;;;;;15.52;9.90;;;;;;;15.95;100.00;101256.91;6332711;28;20046;-78
2022/10/28 13:23:32;;;;;;;19.03;9.47;;;;;;;16.14;100.00;101256.53;6332392;28;20092;-78
2022/10/28 13:26:36;;;;;;;17.65;9.38;;;;;;;16.04;100.00;101254.53;6332020;28;20043;-78
2022/10/28 13:29:39;;;;;;;18.83;10.43;;;;;;;15.81;100.00;101257.78;6332154;28;20071;-78
2022/10/28 13:32:40;;;;;;;17.40;10.07;;;;;;;15.93;100.00;101261.41;6350211;28;20043;-78
2022/10/28 13:35:41;;;;;;;20.97;10.17;;;;;;;15.92;100.00;101265.84;6332014;28;20123;-78
2022/10/28 13:38:49;;;;;;;14.38;8.75;;;;;;;15.95;100.00;101270.06;6350190;28;20411;-78
2022/10/28 13:42:13;;;;;;;15.52;9.27;;;;;;;15.88;100.00;101262.56;6350014;28;20513;-78
2022/10/28 13:45:52;;;;;;;15.85;9.77;;;;;;;15.63;100.00;101265.03;6331335;28;20050;-77
2022/10/28 13:49:13;;;;;;;15.45;8.40;;;;;;;15.61;100.00;101253.78;6331602;28;20048;-77
2022/10/28 13:52:19;;;;;;;19.45;10.45;;;;;;;15.68;100.00;101255.91;6349760;28;20043;-78
2022/10/28 13:55:26;;;;;;;18.27;9.55;;;;;;;15.55;100.00;101254.16;6331544;28;20104;-78
2022/10/28 13:58:26;;;;;;;19.88;8.65;;;;;;;15.44;100.00;101255.66;6314636;28;20071;-78
2022/10/28 14:01:51;;;;;;;18.73;10.30;;;;;;;15.44;100.00;101253.03;6331531;28;20039;-78
2022/10/28 14:04:59;;;;;;;18.63;9.95;;;;;;;15.43;100.00;101255.75;6331406;28;20039;-78
2022/10/28 14:08:06;;;;;;;16.40;9.73;;;;;;;15.43;100.00;101253.13;6330172;28;20043;-78
2022/10/28 14:11:22;;;;;;;17.10;9.65;;;;;;;15.38;100.00;101250.78;6349548;28;20050;-77
2022/10/28 14:14:23;;;;;;;15.60;8.82;;;;;;;15.54;100.00;101252.44;6354787;27;20035;-78
2022/10/28 14:17:33;;;;;;;24.48;8.25;;;;;;;15.62;100.00;101247.56;6327817;27;20043;-78
2022/10/28 14:20:48;;;;;;;16.05;8.50;;;;;;;15.64;100.00;101243.88;6353429;27;20031;-78
2022/10/28 14:24:07;;;;;;;17.00;10.48;;;;;;;15.50;100.00;101250.03;6345668;27;20043;-78